sensor_id;sensor_type;location;lat;lon;timestamp;temperature;humidity
23609;DHT22;11982;50.810;4.442;2023-04-03T00:01:06;2.00;99.90
23609;DHT22;11982;50.810;4.442;2023-04-03T00:03:33;1.90;99.90
23609;DHT22;11982;50.810;4.442;2023-04-03T00:05:59;1.90;99.90
23609;DHT22;11982;50.810;4.442;2023-04-03T00:08:25;1.80;99.90
23609;DHT22;11982;50.810;4.442;2023-04-03T00:10:51;1.80;99.90
23609;DHT22;11982;50.810;4.442;2023-04-03T00:13:17;1.70;99.90
23609;DHT22;11982;50.810;4.442;2023-04-03T00:15:43;1.60;99.90
23609;DHT22;11982;50.810;4.442;2023-04-03T00:18:09;1.60;99.90
23609;DHT22;11982;50.810;4.442;2023-04-03T00:20:35;1.70;99.90
23609;DHT22;11982;50.810;4.442;2023-04-03T00:23:01;1.60;99.90
23609;DHT22;11982;50.810;4.442;2023-04-03T00:25:28;1.50;99.90
23609;DHT22;11982;50.810;4.442;2023-04-03T00:27:54;1.50;99.90
23609;DHT22;11982;50.810;4.442;2023-04-03T00:30:21;1.50;99.90
23609;DHT22;11982;50.810;4.442;2023-04-03T00:32:51;1.40;99.90
23609;DHT22;11982;50.810;4.442;2023-04-03T00:35:17;1.40;99.90
23609;DHT22;11982;50.810;4.442;2023-04-03T00:37:44;1.40;99.90
23609;DHT22;11982;50.810;4.442;2023-04-03T00:40:11;1.40;99.90
23609;DHT22;11982;50.810;4.442;2023-04-03T00:42:37;1.50;99.90
23609;DHT22;11982;50.810;4.442;2023-04-03T00:47:30;1.60;99.90
23609;DHT22;11982;50.810;4.442;2023-04-03T00:49:57;1.70;99.90
23609;DHT22;11982;50.810;4.442;2023-04-03T00:52:26;1.70;99.90
23609;DHT22;11982;50.810;4.442;2023-04-03T00:54:56;1.60;99.90
23609;DHT22;11982;50.810;4.442;2023-04-03T00:57:22;1.60;99.90
23609;DHT22;11982;50.810;4.442;2023-04-03T00:59:55;1.60;99.90
23609;DHT22;11982;50.810;4.442;2023-04-03T01:02:22;1.60;99.90
23609;DHT22;11982;50.810;4.442;2023-04-03T01:04:47;1.70;99.90
23609;DHT22;11982;50.810;4.442;2023-04-03T01:07:18;1.70;99.90
23609;DHT22;11982;50.810;4.442;2023-04-03T01:09:47;1.70;99.90
23609;DHT22;11982;50.810;4.442;2023-04-03T01:12:37;1.80;99.90
23609;DHT22;11982;50.810;4.442;2023-04-03T01:15:06;1.80;99.90
23609;DHT22;11982;50.810;4.442;2023-04-03T01:17:43;1.80;99.90
23609;DHT22;11982;50.810;4.442;2023-04-03T01:25:22;1.70;99.90
23609;DHT22;11982;50.810;4.442;2023-04-03T01:27:48;1.70;99.90
23609;DHT22;11982;50.810;4.442;2023-04-03T01:30:17;1.60;99.90
23609;DHT22;11982;50.810;4.442;2023-04-03T01:32:43;1.70;99.90
23609;DHT22;11982;50.810;4.442;2023-04-03T01:35:10;1.60;99.90
23609;DHT22;11982;50.810;4.442;2023-04-03T01:37:36;1.50;99.90
23609;DHT22;11982;50.810;4.442;2023-04-03T01:40:03;1.50;99.90
23609;DHT22;11982;50.810;4.442;2023-04-03T01:42:28;1.50;99.90
23609;DHT22;11982;50.810;4.442;2023-04-03T01:44:55;1.40;99.90
23609;DHT22;11982;50.810;4.442;2023-04-03T01:47:21;1.30;99.90
23609;DHT22;11982;50.810;4.442;2023-04-03T01:49:47;1.30;99.90
23609;DHT22;11982;50.810;4.442;2023-04-03T01:52:13;1.30;99.90
23609;DHT22;11982;50.810;4.442;2023-04-03T01:54:38;1.30;99.90
23609;DHT22;11982;50.810;4.442;2023-04-03T01:57:04;1.20;99.90
23609;DHT22;11982;50.810;4.442;2023-04-03T01:59:30;1.20;99.90
23609;DHT22;11982;50.810;4.442;2023-04-03T02:01:56;1.20;99.90
23609;DHT22;11982;50.810;4.442;2023-04-03T02:04:22;1.30;99.90
23609;DHT22;11982;50.810;4.442;2023-04-03T02:06:48;1.30;99.90
23609;DHT22;11982;50.810;4.442;2023-04-03T02:09:13;1.30;99.90
23609;DHT22;11982;50.810;4.442;2023-04-03T02:11:39;1.30;99.90
23609;DHT22;11982;50.810;4.442;2023-04-03T02:14:05;1.20;99.90
23609;DHT22;11982;50.810;4.442;2023-04-03T02:16:31;1.20;99.90
23609;DHT22;11982;50.810;4.442;2023-04-03T02:18:56;1.40;99.90
23609;DHT22;11982;50.810;4.442;2023-04-03T02:21:22;1.40;99.90
23609;DHT22;11982;50.810;4.442;2023-04-03T02:23:48;1.30;99.90
23609;DHT22;11982;50.810;4.442;2023-04-03T02:26:15;1.20;99.90
23609;DHT22;11982;50.810;4.442;2023-04-03T02:28:41;1.30;99.90
23609;DHT22;11982;50.810;4.442;2023-04-03T02:31:08;1.30;99.90
23609;DHT22;11982;50.810;4.442;2023-04-03T02:33:35;1.30;99.90
23609;DHT22;11982;50.810;4.442;2023-04-03T02:36:05;1.30;99.90
23609;DHT22;11982;50.810;4.442;2023-04-03T02:38:31;1.20;99.90
23609;DHT22;11982;50.810;4.442;2023-04-03T02:41:08;1.10;99.90
23609;DHT22;11982;50.810;4.442;2023-04-03T02:43:34;1.20;99.90
23609;DHT22;11982;50.810;4.442;2023-04-03T02:46:00;1.10;99.90
23609;DHT22;11982;50.810;4.442;2023-04-03T02:48:26;1.10;99.90
23609;DHT22;11982;50.810;4.442;2023-04-03T02:50:52;1.20;99.90
23609;DHT22;11982;50.810;4.442;2023-04-03T02:53:18;1.10;99.90
23609;DHT22;11982;50.810;4.442;2023-04-03T02:55:44;1.10;99.90
23609;DHT22;11982;50.810;4.442;2023-04-03T02:58:10;1.10;99.90
23609;DHT22;11982;50.810;4.442;2023-04-03T03:00:37;1.00;99.90
23609;DHT22;11982;50.810;4.442;2023-04-03T03:03:03;1.00;99.90
23609;DHT22;11982;50.810;4.442;2023-04-03T03:05:29;1.00;99.90
23609;DHT22;11982;50.810;4.442;2023-04-03T03:07:54;0.90;99.90
23609;DHT22;11982;50.810;4.442;2023-04-03T03:10:21;1.10;99.90
23609;DHT22;11982;50.810;4.442;2023-04-03T03:12:47;1.20;99.90
23609;DHT22;11982;50.810;4.442;2023-04-03T03:15:13;1.20;99.90
23609;DHT22;11982;50.810;4.442;2023-04-03T03:17:40;1.10;99.90
23609;DHT22;11982;50.810;4.442;2023-04-03T03:20:07;1.00;99.90
23609;DHT22;11982;50.810;4.442;2023-04-03T03:22:33;1.00;99.90
23609;DHT22;11982;50.810;4.442;2023-04-03T03:24:59;1.00;99.90
23609;DHT22;11982;50.810;4.442;2023-04-03T03:27:26;0.90;99.90
23609;DHT22;11982;50.810;4.442;2023-04-03T03:29:52;0.90;99.90
23609;DHT22;11982;50.810;4.442;2023-04-03T03:32:17;0.80;99.90
23609;DHT22;11982;50.810;4.442;2023-04-03T03:34:43;0.70;99.90
23609;DHT22;11982;50.810;4.442;2023-04-03T03:37:09;0.70;99.90
23609;DHT22;11982;50.810;4.442;2023-04-03T03:39:34;0.60;99.90
23609;DHT22;11982;50.810;4.442;2023-04-03T03:42:00;0.50;99.90
23609;DHT22;11982;50.810;4.442;2023-04-03T03:44:26;0.60;99.90
23609;DHT22;11982;50.810;4.442;2023-04-03T03:46:53;0.50;99.90
23609;DHT22;11982;50.810;4.442;2023-04-03T03:49:19;0.60;99.90
23609;DHT22;11982;50.810;4.442;2023-04-03T03:51:44;0.60;99.90
23609;DHT22;11982;50.810;4.442;2023-04-03T03:54:11;0.50;99.90
23609;DHT22;11982;50.810;4.442;2023-04-03T03:56:36;0.50;99.90
23609;DHT22;11982;50.810;4.442;2023-04-03T03:59:02;0.60;99.90
23609;DHT22;11982;50.810;4.442;2023-04-03T04:01:28;0.60;99.90
23609;DHT22;11982;50.810;4.442;2023-04-03T04:03:54;0.50;99.90
23609;DHT22;11982;50.810;4.442;2023-04-03T04:06:20;0.50;99.90
23609;DHT22;11982;50.810;4.442;2023-04-03T04:08:46;0.50;99.90
23609;DHT22;11982;50.810;4.442;2023-04-03T04:11:12;0.50;99.90
23609;DHT22;11982;50.810;4.442;2023-04-03T04:13:38;0.40;99.90
23609;DHT22;11982;50.810;4.442;2023-04-03T04:16:03;0.40;99.90
23609;DHT22;11982;50.810;4.442;2023-04-03T04:18:29;0.40;99.90
23609;DHT22;11982;50.810;4.442;2023-04-03T04:20:55;0.40;99.90
23609;DHT22;11982;50.810;4.442;2023-04-03T04:23:21;0.30;99.90
23609;DHT22;11982;50.810;4.442;2023-04-03T04:25:47;0.40;99.90
23609;DHT22;11982;50.810;4.442;2023-04-03T04:28:14;0.50;99.90
23609;DHT22;11982;50.810;4.442;2023-04-03T04:30:40;0.40;99.90
23609;DHT22;11982;50.810;4.442;2023-04-03T04:33:05;0.30;99.90
23609;DHT22;11982;50.810;4.442;2023-04-03T04:35:32;0.40;99.90
23609;DHT22;11982;50.810;4.442;2023-04-03T04:37:58;0.50;99.90
23609;DHT22;11982;50.810;4.442;2023-04-03T04:40:23;0.30;99.90
23609;DHT22;11982;50.810;4.442;2023-04-03T04:42:49;0.30;99.90
23609;DHT22;11982;50.810;4.442;2023-04-03T04:45:15;0.40;99.90
23609;DHT22;11982;50.810;4.442;2023-04-03T04:47:41;0.30;99.90
23609;DHT22;11982;50.810;4.442;2023-04-03T04:50:07;0.40;99.90
23609;DHT22;11982;50.810;4.442;2023-04-03T04:52:33;0.40;99.90
23609;DHT22;11982;50.810;4.442;2023-04-03T04:54:59;0.50;99.90
23609;DHT22;11982;50.810;4.442;2023-04-03T04:57:25;0.50;99.90
23609;DHT22;11982;50.810;4.442;2023-04-03T04:59:51;0.60;99.90
23609;DHT22;11982;50.810;4.442;2023-04-03T05:02:16;0.60;99.90
23609;DHT22;11982;50.810;4.442;2023-04-03T05:04:42;0.60;99.90
23609;DHT22;11982;50.810;4.442;2023-04-03T05:07:08;0.80;99.90
23609;DHT22;11982;50.810;4.442;2023-04-03T05:09:33;0.80;99.90
23609;DHT22;11982;50.810;4.442;2023-04-03T05:11:59;0.60;99.90
23609;DHT22;11982;50.810;4.442;2023-04-03T05:14:25;0.50;99.90
23609;DHT22;11982;50.810;4.442;2023-04-03T05:16:50;0.40;99.90
23609;DHT22;11982;50.810;4.442;2023-04-03T05:19:20;0.50;99.90
23609;DHT22;11982;50.810;4.442;2023-04-03T05:21:47;0.60;99.90
23609;DHT22;11982;50.810;4.442;2023-04-03T05:24:15;0.60;99.90
23609;DHT22;11982;50.810;4.442;2023-04-03T05:26:42;0.70;99.90
23609;DHT22;11982;50.810;4.442;2023-04-03T05:29:08;0.70;99.90
23609;DHT22;11982;50.810;4.442;2023-04-03T05:31:34;0.80;99.90
23609;DHT22;11982;50.810;4.442;2023-04-03T05:34:00;0.80;99.90
23609;DHT22;11982;50.810;4.442;2023-04-03T05:36:26;0.80;99.90
23609;DHT22;11982;50.810;4.442;2023-04-03T05:38:52;0.80;99.90
23609;DHT22;11982;50.810;4.442;2023-04-03T05:41:18;0.90;99.90
23609;DHT22;11982;50.810;4.442;2023-04-03T05:43:44;0.90;99.90
23609;DHT22;11982;50.810;4.442;2023-04-03T05:46:15;0.90;99.90
23609;DHT22;11982;50.810;4.442;2023-04-03T05:48:41;0.90;99.90
23609;DHT22;11982;50.810;4.442;2023-04-03T05:51:17;1.10;99.90
23609;DHT22;11982;50.810;4.442;2023-04-03T05:53:44;1.20;99.90
23609;DHT22;11982;50.810;4.442;2023-04-03T05:56:10;1.20;99.90
23609;DHT22;11982;50.810;4.442;2023-04-03T05:58:36;1.30;99.90
23609;DHT22;11982;50.810;4.442;2023-04-03T06:01:02;1.30;99.90
23609;DHT22;11982;50.810;4.442;2023-04-03T06:03:28;1.30;99.90
23609;DHT22;11982;50.810;4.442;2023-04-03T06:05:53;1.40;99.90
23609;DHT22;11982;50.810;4.442;2023-04-03T06:08:19;1.40;99.90
23609;DHT22;11982;50.810;4.442;2023-04-03T06:10:45;1.50;99.90
23609;DHT22;11982;50.810;4.442;2023-04-03T06:13:11;1.50;99.90
23609;DHT22;11982;50.810;4.442;2023-04-03T06:15:38;1.50;99.90
23609;DHT22;11982;50.810;4.442;2023-04-03T06:18:05;1.60;99.90
23609;DHT22;11982;50.810;4.442;2023-04-03T06:20:30;1.70;99.90
23609;DHT22;11982;50.810;4.442;2023-04-03T06:22:56;1.60;99.90
23609;DHT22;11982;50.810;4.442;2023-04-03T06:25:22;1.80;99.90
23609;DHT22;11982;50.810;4.442;2023-04-03T06:27:48;1.90;99.90
23609;DHT22;11982;50.810;4.442;2023-04-03T06:30:14;2.20;99.90
23609;DHT22;11982;50.810;4.442;2023-04-03T06:32:40;2.30;99.90
23609;DHT22;11982;50.810;4.442;2023-04-03T06:35:06;2.30;99.90
23609;DHT22;11982;50.810;4.442;2023-04-03T06:37:32;2.40;99.90
23609;DHT22;11982;50.810;4.442;2023-04-03T06:39:58;2.50;99.90
23609;DHT22;11982;50.810;4.442;2023-04-03T06:42:25;2.50;99.90
23609;DHT22;11982;50.810;4.442;2023-04-03T06:44:51;2.60;99.90
23609;DHT22;11982;50.810;4.442;2023-04-03T06:47:17;2.70;99.90
23609;DHT22;11982;50.810;4.442;2023-04-03T06:49:44;2.80;99.90
23609;DHT22;11982;50.810;4.442;2023-04-03T06:52:10;2.80;99.90
23609;DHT22;11982;50.810;4.442;2023-04-03T06:54:37;2.90;99.90
23609;DHT22;11982;50.810;4.442;2023-04-03T06:57:03;2.90;99.90
23609;DHT22;11982;50.810;4.442;2023-04-03T06:59:29;2.90;99.90
23609;DHT22;11982;50.810;4.442;2023-04-03T07:01:55;3.10;99.90
23609;DHT22;11982;50.810;4.442;2023-04-03T07:04:21;3.00;99.90
23609;DHT22;11982;50.810;4.442;2023-04-03T07:06:47;3.00;99.90
23609;DHT22;11982;50.810;4.442;2023-04-03T07:09:14;3.00;99.90
23609;DHT22;11982;50.810;4.442;2023-04-03T07:11:40;3.00;99.90
23609;DHT22;11982;50.810;4.442;2023-04-03T07:14:06;3.00;99.90
23609;DHT22;11982;50.810;4.442;2023-04-03T07:16:36;3.00;99.90
23609;DHT22;11982;50.810;4.442;2023-04-03T07:19:03;3.10;99.90
23609;DHT22;11982;50.810;4.442;2023-04-03T07:21:29;3.20;99.90
23609;DHT22;11982;50.810;4.442;2023-04-03T07:23:54;3.20;99.90
23609;DHT22;11982;50.810;4.442;2023-04-03T07:26:21;3.30;99.90
23609;DHT22;11982;50.810;4.442;2023-04-03T07:28:48;3.20;99.90
23609;DHT22;11982;50.810;4.442;2023-04-03T07:31:16;3.30;99.90
23609;DHT22;11982;50.810;4.442;2023-04-03T07:33:42;3.30;99.90
23609;DHT22;11982;50.810;4.442;2023-04-03T07:36:10;3.40;99.90
23609;DHT22;11982;50.810;4.442;2023-04-03T07:38:36;3.40;99.90
23609;DHT22;11982;50.810;4.442;2023-04-03T07:41:03;3.50;99.90
23609;DHT22;11982;50.810;4.442;2023-04-03T07:43:29;3.50;99.90
23609;DHT22;11982;50.810;4.442;2023-04-03T07:45:55;3.60;99.90
23609;DHT22;11982;50.810;4.442;2023-04-03T07:48:22;3.80;99.90
23609;DHT22;11982;50.810;4.442;2023-04-03T07:50:49;3.70;99.90
23609;DHT22;11982;50.810;4.442;2023-04-03T07:53:15;3.80;99.90
23609;DHT22;11982;50.810;4.442;2023-04-03T07:55:47;4.00;99.90
23609;DHT22;11982;50.810;4.442;2023-04-03T07:58:16;4.00;99.90
23609;DHT22;11982;50.810;4.442;2023-04-03T08:00:43;4.10;99.90
23609;DHT22;11982;50.810;4.442;2023-04-03T08:03:10;4.30;99.90
23609;DHT22;11982;50.810;4.442;2023-04-03T08:05:41;4.40;99.90
23609;DHT22;11982;50.810;4.442;2023-04-03T08:08:07;4.40;99.90
23609;DHT22;11982;50.810;4.442;2023-04-03T08:10:34;4.40;99.90
23609;DHT22;11982;50.810;4.442;2023-04-03T08:13:01;4.40;99.90
23609;DHT22;11982;50.810;4.442;2023-04-03T08:15:26;4.40;99.90
23609;DHT22;11982;50.810;4.442;2023-04-03T08:17:53;4.50;99.90
23609;DHT22;11982;50.810;4.442;2023-04-03T08:20:19;4.50;99.90
23609;DHT22;11982;50.810;4.442;2023-04-03T08:22:48;4.50;99.90
23609;DHT22;11982;50.810;4.442;2023-04-03T08:25:14;4.60;99.90
23609;DHT22;11982;50.810;4.442;2023-04-03T08:27:40;4.60;99.90
23609;DHT22;11982;50.810;4.442;2023-04-03T08:30:06;4.80;99.90
23609;DHT22;11982;50.810;4.442;2023-04-03T08:32:33;4.90;99.90
23609;DHT22;11982;50.810;4.442;2023-04-03T08:35:00;5.00;99.90
23609;DHT22;11982;50.810;4.442;2023-04-03T08:37:26;4.90;99.90
23609;DHT22;11982;50.810;4.442;2023-04-03T08:39:52;4.90;99.90
23609;DHT22;11982;50.810;4.442;2023-04-03T08:50:20;5.70;99.90
23609;DHT22;11982;50.810;4.442;2023-04-03T08:52:56;5.60;99.90
23609;DHT22;11982;50.810;4.442;2023-04-03T08:55:31;5.50;99.90
23609;DHT22;11982;50.810;4.442;2023-04-03T08:58:04;5.40;99.90
23609;DHT22;11982;50.810;4.442;2023-04-03T09:00:58;5.40;99.90
23609;DHT22;11982;50.810;4.442;2023-04-03T09:03:24;5.40;99.90
23609;DHT22;11982;50.810;4.442;2023-04-03T09:14:11;5.80;99.90
23609;DHT22;11982;50.810;4.442;2023-04-03T09:17:00;6.00;99.90
23609;DHT22;11982;50.810;4.442;2023-04-03T09:22:10;6.10;99.90
23609;DHT22;11982;50.810;4.442;2023-04-03T09:24:38;6.30;99.90
23609;DHT22;11982;50.810;4.442;2023-04-03T09:27:05;6.40;99.90
23609;DHT22;11982;50.810;4.442;2023-04-03T09:29:36;6.50;99.90
23609;DHT22;11982;50.810;4.442;2023-04-03T09:34:47;6.40;99.90
23609;DHT22;11982;50.810;4.442;2023-04-03T09:37:36;6.60;99.90
23609;DHT22;11982;50.810;4.442;2023-04-03T09:40:03;6.60;99.90
23609;DHT22;11982;50.810;4.442;2023-04-03T09:42:30;6.40;99.90
23609;DHT22;11982;50.810;4.442;2023-04-03T09:45:05;6.50;99.90
23609;DHT22;11982;50.810;4.442;2023-04-03T09:47:34;6.60;99.90
23609;DHT22;11982;50.810;4.442;2023-04-03T09:52:39;6.70;99.90
23609;DHT22;11982;50.810;4.442;2023-04-03T09:55:08;6.60;99.90
23609;DHT22;11982;50.810;4.442;2023-04-03T09:57:38;6.60;99.90
23609;DHT22;11982;50.810;4.442;2023-04-03T10:00:05;6.70;99.90
23609;DHT22;11982;50.810;4.442;2023-04-03T10:02:41;6.80;99.90
23609;DHT22;11982;50.810;4.442;2023-04-03T10:08:08;7.20;99.90
23609;DHT22;11982;50.810;4.442;2023-04-03T10:10:34;7.20;99.90
23609;DHT22;11982;50.810;4.442;2023-04-03T10:13:14;7.20;99.90
23609;DHT22;11982;50.810;4.442;2023-04-03T10:15:56;7.00;99.90
23609;DHT22;11982;50.810;4.442;2023-04-03T10:20:54;7.10;99.90
23609;DHT22;11982;50.810;4.442;2023-04-03T10:23:31;7.30;99.90
23609;DHT22;11982;50.810;4.442;2023-04-03T10:36:47;7.70;99.90
23609;DHT22;11982;50.810;4.442;2023-04-03T10:45:03;7.60;99.90
23609;DHT22;11982;50.810;4.442;2023-04-03T10:47:43;7.40;99.90
23609;DHT22;11982;50.810;4.442;2023-04-03T10:58:29;8.20;99.90
23609;DHT22;11982;50.810;4.442;2023-04-03T11:01:02;8.20;99.90
23609;DHT22;11982;50.810;4.442;2023-04-03T11:03:41;8.00;99.90
23609;DHT22;11982;50.810;4.442;2023-04-03T11:06:11;7.90;99.90
23609;DHT22;11982;50.810;4.442;2023-04-03T11:08:53;7.90;99.90
23609;DHT22;11982;50.810;4.442;2023-04-03T11:11:27;8.10;99.90
23609;DHT22;11982;50.810;4.442;2023-04-03T11:13:56;8.30;99.90
23609;DHT22;11982;50.810;4.442;2023-04-03T11:16:27;8.40;99.90
23609;DHT22;11982;50.810;4.442;2023-04-03T11:19:14;8.50;99.90
23609;DHT22;11982;50.810;4.442;2023-04-03T11:21:56;8.50;99.90
23609;DHT22;11982;50.810;4.442;2023-04-03T11:24:26;8.60;99.90
23609;DHT22;11982;50.810;4.442;2023-04-03T11:26:54;8.80;99.90
23609;DHT22;11982;50.810;4.442;2023-04-03T11:29:23;8.70;99.90
23609;DHT22;11982;50.810;4.442;2023-04-03T11:34:41;8.60;99.90
23609;DHT22;11982;50.810;4.442;2023-04-03T11:42:38;8.90;99.90
23609;DHT22;11982;50.810;4.442;2023-04-03T11:53:29;8.60;99.90
23609;DHT22;11982;50.810;4.442;2023-04-03T11:56:04;8.60;99.90
23609;DHT22;11982;50.810;4.442;2023-04-03T11:58:33;8.60;99.90
23609;DHT22;11982;50.810;4.442;2023-04-03T12:05:52;9.00;99.90
23609;DHT22;11982;50.810;4.442;2023-04-03T12:08:27;9.20;99.90
23609;DHT22;11982;50.810;4.442;2023-04-03T12:16:27;9.00;99.90
23609;DHT22;11982;50.810;4.442;2023-04-03T12:45:26;9.00;99.90
23609;DHT22;11982;50.810;4.442;2023-04-03T12:47:54;9.10;99.90
23609;DHT22;11982;50.810;4.442;2023-04-03T12:50:22;9.10;99.90
23609;DHT22;11982;50.810;4.442;2023-04-03T12:55:30;9.00;99.90
23609;DHT22;11982;50.810;4.442;2023-04-03T12:57:56;9.00;99.90
23609;DHT22;11982;50.810;4.442;2023-04-03T13:00:33;9.20;99.90
23609;DHT22;11982;50.810;4.442;2023-04-03T13:03:02;9.00;99.90
23609;DHT22;11982;50.810;4.442;2023-04-03T13:05:30;8.80;99.90
23609;DHT22;11982;50.810;4.442;2023-04-03T13:08:06;9.20;99.90
23609;DHT22;11982;50.810;4.442;2023-04-03T13:13:18;9.60;99.90
23609;DHT22;11982;50.810;4.442;2023-04-03T13:15:46;9.60;99.90
23609;DHT22;11982;50.810;4.442;2023-04-03T13:18:32;9.50;99.90
23609;DHT22;11982;50.810;4.442;2023-04-03T13:21:15;9.30;99.90
23609;DHT22;11982;50.810;4.442;2023-04-03T13:23:45;9.30;99.90
23609;DHT22;11982;50.810;4.442;2023-04-03T13:26:14;9.40;99.90
23609;DHT22;11982;50.810;4.442;2023-04-03T13:28:42;9.30;99.90
23609;DHT22;11982;50.810;4.442;2023-04-03T13:31:29;9.30;99.90
23609;DHT22;11982;50.810;4.442;2023-04-03T13:34:16;9.10;99.90
23609;DHT22;11982;50.810;4.442;2023-04-03T13:41:43;9.40;99.90
23609;DHT22;11982;50.810;4.442;2023-04-03T13:44:36;9.40;99.90
23609;DHT22;11982;50.810;4.442;2023-04-03T13:49:37;9.50;99.90
23609;DHT22;11982;50.810;4.442;2023-04-03T13:52:32;9.50;99.90
23609;DHT22;11982;50.810;4.442;2023-04-03T13:55:28;9.70;99.90
23609;DHT22;11982;50.810;4.442;2023-04-03T14:02:57;9.70;99.90
23609;DHT22;11982;50.810;4.442;2023-04-03T14:05:24;9.60;99.90
23609;DHT22;11982;50.810;4.442;2023-04-03T14:07:51;9.50;99.90
23609;DHT22;11982;50.810;4.442;2023-04-03T14:10:18;9.40;99.90
23609;DHT22;11982;50.810;4.442;2023-04-03T14:12:44;9.20;99.90
23609;DHT22;11982;50.810;4.442;2023-04-03T14:15:36;9.30;99.90
23609;DHT22;11982;50.810;4.442;2023-04-03T14:18:02;9.50;99.90
23609;DHT22;11982;50.810;4.442;2023-04-03T14:20:28;9.70;99.90
23609;DHT22;11982;50.810;4.442;2023-04-03T14:22:54;9.70;99.90
23609;DHT22;11982;50.810;4.442;2023-04-03T14:25:21;9.50;99.90
23609;DHT22;11982;50.810;4.442;2023-04-03T14:27:51;9.50;99.90
23609;DHT22;11982;50.810;4.442;2023-04-03T14:30:24;9.80;99.90
23609;DHT22;11982;50.810;4.442;2023-04-03T14:32:51;9.80;99.90
23609;DHT22;11982;50.810;4.442;2023-04-03T14:35:18;9.90;99.30
23609;DHT22;11982;50.810;4.442;2023-04-03T14:37:45;9.80;99.30
23609;DHT22;11982;50.810;4.442;2023-04-03T14:40:18;9.70;98.70
23609;DHT22;11982;50.810;4.442;2023-04-03T14:42:44;9.90;99.50
23609;DHT22;11982;50.810;4.442;2023-04-03T14:45:12;9.90;98.60
23609;DHT22;11982;50.810;4.442;2023-04-03T14:47:45;9.80;99.00
23609;DHT22;11982;50.810;4.442;2023-04-03T14:50:20;9.70;98.60
23609;DHT22;11982;50.810;4.442;2023-04-03T14:52:51;9.70;98.10
23609;DHT22;11982;50.810;4.442;2023-04-03T14:55:18;9.70;98.70
23609;DHT22;11982;50.810;4.442;2023-04-03T14:57:45;9.90;99.30
23609;DHT22;11982;50.810;4.442;2023-04-03T15:00:19;9.90;98.70
23609;DHT22;11982;50.810;4.442;2023-04-03T15:02:46;10.00;99.00
23609;DHT22;11982;50.810;4.442;2023-04-03T15:05:13;9.90;97.10
23609;DHT22;11982;50.810;4.442;2023-04-03T15:07:41;9.80;98.20
23609;DHT22;11982;50.810;4.442;2023-04-03T15:10:18;9.80;98.50
23609;DHT22;11982;50.810;4.442;2023-04-03T15:12:44;9.90;98.20
23609;DHT22;11982;50.810;4.442;2023-04-03T15:15:10;10.00;98.50
23609;DHT22;11982;50.810;4.442;2023-04-03T15:17:36;9.90;99.00
23609;DHT22;11982;50.810;4.442;2023-04-03T15:20:03;9.80;98.50
23609;DHT22;11982;50.810;4.442;2023-04-03T15:22:29;9.80;99.20
23609;DHT22;11982;50.810;4.442;2023-04-03T15:24:54;9.90;99.80
23609;DHT22;11982;50.810;4.442;2023-04-03T15:27:20;9.90;99.90
23609;DHT22;11982;50.810;4.442;2023-04-03T15:29:46;9.90;99.60
23609;DHT22;11982;50.810;4.442;2023-04-03T15:32:12;9.80;99.70
23609;DHT22;11982;50.810;4.442;2023-04-03T15:34:38;9.90;99.90
23609;DHT22;11982;50.810;4.442;2023-04-03T15:37:05;10.00;99.70
23609;DHT22;11982;50.810;4.442;2023-04-03T15:39:31;10.10;99.90
23609;DHT22;11982;50.810;4.442;2023-04-03T15:41:57;10.00;99.90
23609;DHT22;11982;50.810;4.442;2023-04-03T15:44:29;10.00;99.90
23609;DHT22;11982;50.810;4.442;2023-04-03T15:46:54;10.10;99.90
23609;DHT22;11982;50.810;4.442;2023-04-03T15:49:21;10.00;99.90
23609;DHT22;11982;50.810;4.442;2023-04-03T15:51:47;9.70;99.90
23609;DHT22;11982;50.810;4.442;2023-04-03T15:54:13;9.70;99.90
23609;DHT22;11982;50.810;4.442;2023-04-03T15:56:38;9.70;99.90
23609;DHT22;11982;50.810;4.442;2023-04-03T15:59:04;9.70;99.90
23609;DHT22;11982;50.810;4.442;2023-04-03T16:01:30;9.70;99.90
23609;DHT22;11982;50.810;4.442;2023-04-03T16:03:56;9.70;99.90
23609;DHT22;11982;50.810;4.442;2023-04-03T16:06:24;9.60;99.90
23609;DHT22;11982;50.810;4.442;2023-04-03T16:08:50;9.60;99.90
23609;DHT22;11982;50.810;4.442;2023-04-03T16:11:16;9.70;99.90
23609;DHT22;11982;50.810;4.442;2023-04-03T16:13:42;9.70;99.90
23609;DHT22;11982;50.810;4.442;2023-04-03T16:16:08;9.60;99.90
23609;DHT22;11982;50.810;4.442;2023-04-03T16:18:35;9.60;99.90
23609;DHT22;11982;50.810;4.442;2023-04-03T16:21:01;9.60;99.90
23609;DHT22;11982;50.810;4.442;2023-04-03T16:23:27;9.60;99.90
23609;DHT22;11982;50.810;4.442;2023-04-03T16:25:53;9.50;99.90
23609;DHT22;11982;50.810;4.442;2023-04-03T16:28:19;9.40;99.90
23609;DHT22;11982;50.810;4.442;2023-04-03T16:30:45;9.40;99.90
23609;DHT22;11982;50.810;4.442;2023-04-03T16:33:12;9.40;99.90
23609;DHT22;11982;50.810;4.442;2023-04-03T16:35:39;9.40;99.90
23609;DHT22;11982;50.810;4.442;2023-04-03T16:38:07;9.40;99.90
23609;DHT22;11982;50.810;4.442;2023-04-03T16:40:33;9.40;99.90
23609;DHT22;11982;50.810;4.442;2023-04-03T16:43:01;9.30;99.90
23609;DHT22;11982;50.810;4.442;2023-04-03T16:45:27;9.30;99.90
23609;DHT22;11982;50.810;4.442;2023-04-03T16:47:53;9.30;99.90
23609;DHT22;11982;50.810;4.442;2023-04-03T16:50:18;9.20;99.90
23609;DHT22;11982;50.810;4.442;2023-04-03T16:52:47;9.20;99.90
23609;DHT22;11982;50.810;4.442;2023-04-03T16:55:13;9.10;99.90
23609;DHT22;11982;50.810;4.442;2023-04-03T16:57:40;9.10;99.90
23609;DHT22;11982;50.810;4.442;2023-04-03T17:00:07;9.20;99.90
23609;DHT22;11982;50.810;4.442;2023-04-03T17:02:34;9.10;99.90
23609;DHT22;11982;50.810;4.442;2023-04-03T17:04:59;9.10;99.90
23609;DHT22;11982;50.810;4.442;2023-04-03T17:07:26;9.00;99.90
23609;DHT22;11982;50.810;4.442;2023-04-03T17:09:52;9.00;99.90
23609;DHT22;11982;50.810;4.442;2023-04-03T17:12:20;9.00;99.90
23609;DHT22;11982;50.810;4.442;2023-04-03T17:14:45;9.00;99.90
23609;DHT22;11982;50.810;4.442;2023-04-03T17:17:15;9.00;99.90
23609;DHT22;11982;50.810;4.442;2023-04-03T17:19:41;8.90;99.90
23609;DHT22;11982;50.810;4.442;2023-04-03T17:22:08;8.80;99.90
23609;DHT22;11982;50.810;4.442;2023-04-03T17:24:35;8.90;99.90
23609;DHT22;11982;50.810;4.442;2023-04-03T17:27:02;8.90;99.90
23609;DHT22;11982;50.810;4.442;2023-04-03T17:29:28;8.80;99.90
23609;DHT22;11982;50.810;4.442;2023-04-03T17:31:53;8.70;99.90
23609;DHT22;11982;50.810;4.442;2023-04-03T17:34:19;8.60;99.90
23609;DHT22;11982;50.810;4.442;2023-04-03T17:36:45;8.60;99.90
23609;DHT22;11982;50.810;4.442;2023-04-03T17:39:11;8.50;99.90
23609;DHT22;11982;50.810;4.442;2023-04-03T17:41:37;8.50;99.90
23609;DHT22;11982;50.810;4.442;2023-04-03T17:44:02;8.50;99.90
23609;DHT22;11982;50.810;4.442;2023-04-03T17:46:28;8.40;99.90
23609;DHT22;11982;50.810;4.442;2023-04-03T17:48:54;8.30;99.90
23609;DHT22;11982;50.810;4.442;2023-04-03T17:51:22;8.20;99.90
23609;DHT22;11982;50.810;4.442;2023-04-03T17:53:48;8.20;99.90
23609;DHT22;11982;50.810;4.442;2023-04-03T17:56:22;8.10;99.90
23609;DHT22;11982;50.810;4.442;2023-04-03T17:58:50;8.00;99.90
23609;DHT22;11982;50.810;4.442;2023-04-03T18:01:25;8.00;99.90
23609;DHT22;11982;50.810;4.442;2023-04-03T18:03:53;7.90;99.90